[Every four weeks | EDDT-EDDH | 20-22 lcl] Onlinedayshuttle EDDT - EDDH

Zu Eventkalender hinzugefügt: 21.05.20, 18.06.20, 16.07.20

Pascal Seeler

1271398
RG Berlin - Leitung
RG Berlin - Mentor
ATD - Prüfer


VATSIM Germany bekommt eine neue Rennstrecke! Alle vier Wochen gibt sich der Berliner Hauptstadtflughafen die Ehre, Shuttlepartner des Hamburger Onlinedays zu sein. Die Strecke ist kurz- gerade einmal 180nm- beste Voraussetzungen also für anspruchsvolle Flüge und volle Lufträume. Wir freuen uns schon darauf, euch von 20 bis mindestens 22 Uhr lokaler Zeit ATC bieten zu dürfen!

Nächster Termin des Shuttles: Donnerstag, 18. Juni 2020, 20-22lcl (18-20z)

Charts: https://vatsim-germany.org/pilots/aerodromes

-------------------------------------------------------------------------------------------------------------

VATSIM Germany has a new regular scheduled race track! Every four weeks the capital airport Berlin Tegel will be the shuttle partner for the Hamburg Onlineday. It's a short hop- only about 180nm- which makes for challenging flights and crowded airspaces. We are looking forward to bringing you best ATC from clearence to on-block from 8 p.m. to 10 p.m., so get into your planes and visit us!

Next Date of the Shuttle: Thursday, 21st May 2020, 20-22lcl (18-20z)

Charts: https://vatsim-germany.org/pilots/aerodromes
 
Zuletzt bearbeitet von einem Moderator:

Pascal Seeler

1271398
RG Berlin - Leitung
RG Berlin - Mentor
ATD - Prüfer
In weniger als einer Stunde geht es los, die neue regelmäßige Rennstrecke zwischen Hamburg und Berlin- Tegel wird eröffnet. Alle vier Wochen habt ihr ab heute die Gelegenheit auf einen kurzen Hüpfer zwischen den beiden Plätzen. Wir freuen uns zwischen 20 und 22 lcl auf Traffic! :)
 

Pascal Seeler

1271398
RG Berlin - Leitung
RG Berlin - Mentor
ATD - Prüfer
Jawohl, das ist heute wieder! Hamburg und Berlin stehen zwischen 20 und 22 lcl bereit für ein Sprint- Shuttle zwischen der Elb- und der Spreestadt. :)
 

Andreas Stender

1413584
PR & Events - Leitung
RG Berlin - Event
RG Berlin - Mentor
Heute ist es wieder soweit. Berlin und Hamburg freuen sich zwischen 20-22lcl auf Euch. Auch ein VFR-Flug sollte auf der kurzen Strecke innerhalb des Shuttlezeitraumes möglich sein. Vorausgesetzt ihr habt genug Tüten dabei, es könnte etwas ruppiger werden da oben.

TAF: EDDT 300639Z 3006/3106 24015G25KT 9999 BKN020 PROB40 TEMPO 3006/3011 4500 RADZ BKN013 TEMPO 3009/3014 24020G30KT BECMG 3015/3018 21012KT BECMG 3100/3102 24020G30KT
TAF: EDDH 300500Z 3006/3112 23015G25KT 9999 BKN014 TEMPO 3006/3012 24020G35KT 3500 -RADZ BKN007 PROB30 TEMPO 3006/3012 BKN020 BECMG 3012/3015 22010KT SCT020 BECMG 3021/3024 23015G25KT BKN007 PROB30 TEMPO 3023/3104 4500 -RA BKN004 BECMG 3104/3106 SCT025 TEMPO 3108/3112 22010KT BECMG 3110/3112 BKN011
Wir freuen uns auf Euch...
 

Andreas Stender

1413584
PR & Events - Leitung
RG Berlin - Event
RG Berlin - Mentor
Das ist übrigens heute. Falls ihr also in den nächsten 1 1/2 Stunden noch einen kurzen Sprint hinlegen wollt, Tegel und Hamburg sind besetzt...
 

Manuel Pick

1465242
RG Berlin - Event
Auch diesen Monat freuen wir uns, die Rennstrecke zwischen Hamburg und Berlin zu eröffnen. Heute Abend sind beide Flughäfen wie üblich bestens besetzt und freuen sich auf zahlreiches Erscheinen.


TAF: EDDT 160500Z 1606/1706 30008KT 9999 SCT010 BKN030 TEMPO 1606/1608 BKN010 TEMPO 1610/1618 35015G30KT SHRA BKN030CB PROB30 TEMPO 1612/1617 TSRA
TAF: EDDH 160500Z 1606/1712 30003KT 9999 FEW035 TEMPO 1609/1618 34008KT FEW025TCU TEMPO 1700/1704 2500 BCFG PROB30 TEMPO 1701/1703 0700 FG
 
Oben